Time;durP1;ratioP1;P1;durP2;ratioP2;P2;SDS_P1;SDS_P2;PMS_P1;PMS_P2;Temp;Humidity;BMP_temperature;BMP_pressure;BME280_temperature;BME280_humidity;BME280_pressure;Samples;Min_cycle;Max_cycle;Signal;HPM_P1;HPM_P2
2022/06/25 00:01:19;;;;;;;3.58;1.48;;;17.40;99.90;;;;;;5094048;28;19924;-61
2022/06/25 00:03:45;;;;;;;5.28;1.70;;;17.40;99.90;;;;;;5083041;28;20044;-61
2022/06/25 00:06:11;;;;;;;;;;;17.40;99.90;;;;;;5083268;28;20123;-61
2022/06/25 00:08:37;;;;;;;3.55;1.50;;;17.40;99.90;;;;;;5083835;28;20527;-61
2022/06/25 00:11:04;;;;;;;7.10;1.40;;;17.40;99.90;;;;;;5089519;28;20094;-61
2022/06/25 00:13:30;;;;;;;4.97;1.50;;;17.40;99.90;;;;;;5081504;28;20412;-61
2022/06/25 00:15:57;;;;;;;;;;;17.40;99.90;;;;;;5081756;28;20055;-61
2022/06/25 00:18:22;;;;;;;1.83;1.40;;;17.40;99.90;;;;;;5072838;28;19924;-61
2022/06/25 00:20:48;;;;;;;;;;;17.30;99.90;;;;;;5069411;28;20098;-61
2022/06/25 00:23:14;;;;;;;4.25;1.40;;;17.30;99.90;;;;;;5068861;28;20296;-61
2022/06/25 00:25:40;;;;;;;;;;;17.30;99.90;;;;;;5069110;28;20045;-61
2022/06/25 00:28:06;;;;;;;7.40;1.42;;;17.30;99.90;;;;;;5068592;28;20299;-61
2022/06/25 00:30:33;;;;;;;2.80;1.35;;;17.30;99.90;;;;;;5070898;28;20045;-61
2022/06/25 00:32:58;;;;;;;2.92;1.17;;;17.30;99.90;;;;;;5069481;28;20039;-61
2022/06/25 00:35:25;;;;;;;;;;;17.30;99.90;;;;;;5063109;28;20695;-61
2022/06/25 00:37:50;;;;;;;3.95;1.48;;;17.30;99.90;;;;;;5068458;28;19916;-61
2022/06/25 00:40:16;;;;;;;;;;;17.20;99.90;;;;;;5068718;28;20182;-62
2022/06/25 00:42:47;;;;;;;3.67;1.50;;;17.20;99.90;;;;;;5065382;28;19926;-61
2022/06/25 00:45:13;;;;;;;1.98;1.67;;;17.10;99.90;;;;;;5068021;28;20447;-61
2022/06/25 00:47:39;;;;;;;2.65;1.40;;;17.10;99.90;;;;;;5068128;28;20039;-61
2022/06/25 00:50:05;;;;;;;;;;;17.10;99.90;;;;;;5069305;28;20040;-61
2022/06/25 00:52:33;;;;;;;2.65;1.40;;;17.00;99.90;;;;;;5068195;28;20426;-61
2022/06/25 00:55:05;;;;;;;2.30;1.20;;;17.00;99.90;;;;;;5068544;28;20049;-62
2022/06/25 00:57:36;;;;;;;2.25;1.50;;;17.00;99.90;;;;;;5065883;28;20410;-61
2022/06/25 01:00:20;;;;;;;1.75;1.33;;;17.00;99.90;;;;;;5068268;28;20048;-61
2022/06/25 01:02:50;;;;;;;2.72;1.42;;;16.90;99.90;;;;;;5076890;28;20056;-61
2022/06/25 01:05:18;;;;;;;1.98;1.63;;;16.90;99.90;;;;;;5068488;28;20099;-61
2022/06/25 01:07:46;;;;;;;4.30;1.52;;;16.90;99.90;;;;;;5069133;28;20047;-61
2022/06/25 01:10:13;;;;;;;2.53;1.75;;;16.90;99.90;;;;;;5077140;28;20055;-61
2022/06/25 01:12:53;;;;;;;3.05;1.42;;;16.90;99.90;;;;;;5077085;28;20773;-61
2022/06/25 01:15:25;;;;;;;5.05;1.42;;;16.90;99.90;;;;;;5068884;28;20085;-61
2022/06/25 01:17:52;;;;;;;3.60;1.70;;;16.90;99.90;;;;;;5069115;28;20049;-61
2022/06/25 01:20:23;;;;;;;2.67;1.75;;;16.90;99.90;;;;;;5069175;28;20040;-61
2022/06/25 01:22:52;;;;;;;3.95;1.40;;;16.90;99.90;;;;;;5070054;28;20037;-61
2022/06/25 01:25:19;;;;;;;2.25;1.42;;;16.90;99.90;;;;;;5080397;28;20043;-61
2022/06/25 01:27:49;;;;;;;2.00;1.30;;;16.90;99.90;;;;;;5081495;28;20048;-61
2022/06/25 01:30:15;;;;;;;2.25;1.50;;;17.00;99.90;;;;;;5067450;28;20040;-61
2022/06/25 01:32:44;;;;;;;3.92;1.77;;;17.00;99.90;;;;;;5075592;28;20173;-61
2022/06/25 01:35:09;;;;;;;5.22;2.00;;;17.00;99.90;;;;;;5089692;28;20032;-61
2022/06/25 01:37:35;;;;;;;;;;;17.00;99.90;;;;;;5084621;28;20102;-61
2022/06/25 01:40:07;;;;;;;4.22;2.10;;;17.00;99.90;;;;;;5077157;28;19979;-61
2022/06/25 01:45:28;;;;;;;1.80;1.20;;;16.90;99.90;;;;;;5088717;28;20039;-61
2022/06/25 01:47:57;;;;;;;2.78;1.65;;;16.90;99.90;;;;;;5082353;28;20119;-61
2022/06/25 01:50:24;;;;;;;4.03;1.23;;;16.80;99.90;;;;;;5067869;28;20036;-61
2022/06/25 01:52:57;;;;;;;7.07;1.50;;;16.80;99.90;;;;;;5073586;28;20040;-61
2022/06/25 01:55:23;;;;;;;4.07;1.77;;;16.70;99.90;;;;;;5085091;28;20080;-61
2022/06/25 01:57:49;;;;;;;;;;;16.80;99.90;;;;;;5073337;28;20074;-61
2022/06/25 02:00:21;;;;;;;2.53;1.33;;;16.80;99.90;;;;;;5088748;28;19959;-61
2022/06/25 02:02:52;;;;;;;6.38;1.45;;;16.80;99.90;;;;;;5081439;28;20052;-61
2022/06/25 02:08:10;;;;;;;2.22;1.40;;;16.70;99.90;;;;;;5087567;28;20035;-61
2022/06/25 02:10:39;;;;;;;1.58;1.30;;;16.70;99.90;;;;;;5087273;28;20665;-61
2022/06/25 02:13:09;;;;;;;3.53;1.60;;;16.70;99.90;;;;;;5087848;28;20067;-61
2022/06/25 02:15:35;;;;;;;1.98;1.42;;;16.60;99.90;;;;;;5088049;28;20639;-61
2022/06/25 02:18:01;;;;;;;;;;;16.60;99.90;;;;;;5088630;28;20553;-61
2022/06/25 02:20:30;;;;;;;2.95;1.33;;;16.60;99.90;;;;;;5087835;28;19916;-61
2022/06/25 02:22:56;;;;;;;7.18;1.52;;;16.50;99.90;;;;;;5087901;28;20504;-61
2022/06/25 02:25:24;;;;;;;1.63;1.10;;;16.50;99.90;;;;;;5087862;28;20043;-63
2022/06/25 02:27:53;;;;;;;3.75;1.10;;;16.50;99.90;;;;;;5087891;28;20036;-61
2022/06/25 02:30:24;;;;;;;8.00;1.35;;;16.50;99.90;;;;;;5065904;28;20124;-61
2022/06/25 02:33:03;;;;;;;;;;;;;;;;;;;;;
2022/06/25 02:35:34;;;;;;;3.60;1.27;;;16.40;99.90;;;;;;5066368;28;20056;-61
2022/06/25 02:38:02;;;;;;;2.55;1.00;;;16.40;99.90;;;;;;5076714;28;20119;-61
2022/06/25 02:40:28;;;;;;;;;;;16.40;99.90;;;;;;5093223;28;20678;-61
2022/06/25 02:42:54;;;;;;;2.08;1.13;;;16.40;99.90;;;;;;5087483;28;19955;-61
2022/06/25 02:45:19;;;;;;;;;;;16.30;99.90;;;;;;5087765;28;20040;-61
2022/06/25 02:47:45;;;;;;;1.73;1.23;;;16.20;99.90;;;;;;5088306;28;19920;-61
2022/06/25 02:50:11;;;;;;;;;;;16.20;99.90;;;;;;5088315;28;20036;-61
2022/06/25 02:52:39;;;;;;;3.47;1.15;;;16.20;99.90;;;;;;5088242;28;19963;-61
2022/06/25 02:55:06;;;;;;;3.92;1.63;;;16.10;99.90;;;;;;5087430;28;20051;-61
2022/06/25 03:00:18;;;;;;;5.80;1.67;;;16.10;99.90;;;;;;5086075;28;20043;-61
2022/06/25 03:02:44;;;;;;;;;;;16.10;99.90;;;;;;5067832;28;20401;-61
2022/06/25 03:05:10;;;;;;;5.78;1.42;;;16.10;99.90;;;;;;5066505;28;19920;-61
2022/06/25 03:07:36;;;;;;;;;;;16.00;99.90;;;;;;5068226;28;20048;-61
2022/06/25 03:10:04;;;;;;;2.20;1.35;;;16.00;99.90;;;;;;5075396;28;20344;-61
2022/06/25 03:12:33;;;;;;;3.42;1.20;;;16.00;99.90;;;;;;5083898;28;20048;-56
2022/06/25 03:14:59;;;;;;;2.97;1.75;;;16.00;99.90;;;;;;5075443;28;20123;-59
2022/06/25 03:17:28;;;;;;;1.52;1.23;;;16.00;99.90;;;;;;5067099;28;20412;-59
2022/06/25 03:19:58;;;;;;;4.60;1.10;;;16.00;99.90;;;;;;5067580;28;20040;-59
2022/06/25 03:22:24;;;;;;;4.22;1.40;;;16.00;99.90;;;;;;5067126;28;20090;-59
2022/06/25 03:24:50;;;;;;;;;;;16.00;99.90;;;;;;5067597;28;20044;-57
2022/06/25 03:27:18;;;;;;;2.65;1.27;;;15.90;99.90;;;;;;5066578;28;19929;-59
2022/06/25 03:29:44;;;;;;;5.68;1.40;;;15.90;99.90;;;;;;5066572;28;20641;-56
2022/06/25 03:32:19;;;;;;;;;;;15.90;99.90;;;;;;5083341;28;20044;-58
2022/06/25 03:34:44;;;;;;;2.63;1.20;;;16.00;99.90;;;;;;5087441;28;19916;-56
2022/06/25 03:37:12;;;;;;;;;;;15.90;99.90;;;;;;5087391;28;20093;-59
2022/06/25 03:39:47;;;;;;;3.55;0.95;;;15.90;99.90;;;;;;5093220;28;19963;-59
2022/06/25 03:42:17;;;;;;;2.13;1.00;;;15.90;99.90;;;;;;5092286;28;20125;-59
2022/06/25 03:44:47;;;;;;;4.28;1.35;;;15.90;99.90;;;;;;5087246;28;20044;-59
2022/06/25 03:47:18;;;;;;;2.00;1.30;;;16.00;99.90;;;;;;5087407;28;20043;-59
2022/06/25 03:49:43;;;;;;;1.80;1.50;;;16.00;99.90;;;;;;5087011;28;20032;-58
2022/06/25 03:52:09;;;;;;;;;;;16.20;99.90;;;;;;5087674;28;20420;-59
2022/06/25 03:54:43;;;;;;;1.42;1.00;;;16.40;99.90;;;;;;5086956;28;19934;-59
2022/06/25 03:57:11;;;;;;;6.30;1.60;;;16.70;99.90;;;;;;5090945;28;20076;-59
2022/06/25 03:59:41;;;;;;;1.40;1.02;;;16.70;99.90;;;;;;5090967;28;20531;-59
2022/06/25 04:02:08;;;;;;;6.25;1.30;;;16.60;99.90;;;;;;5089707;28;20379;-59
2022/06/25 04:04:34;;;;;;;2.85;1.38;;;16.50;99.90;;;;;;5090771;28;20040;-58
2022/06/25 04:07:02;;;;;;;;;;;16.50;99.90;;;;;;5091263;28;20079;-59
2022/06/25 04:09:41;;;;;;;;;;;;;;;;;;;;;
2022/06/25 04:12:07;;;;;;;4.15;1.20;;;16.50;99.90;;;;;;5083912;28;20040;-59
2022/06/25 04:14:42;;;;;;;;;;;16.50;99.90;;;;;;5090852;28;20081;-59
2022/06/25 04:17:08;;;;;;;3.25;1.08;;;16.50;99.90;;;;;;5089259;28;19922;-59
2022/06/25 04:19:39;;;;;;;4.78;1.38;;;16.70;99.90;;;;;;5090168;28;20036;-59
2022/06/25 04:22:14;;;;;;;4.55;1.13;;;16.80;99.90;;;;;;5088017;28;20062;-60
2022/06/25 04:24:40;;;;;;;2.88;1.10;;;17.00;99.90;;;;;;5090149;28;20089;-59
2022/06/25 04:27:07;;;;;;;2.08;1.27;;;17.20;99.90;;;;;;5087742;28;20130;-59
2022/06/25 04:29:33;;;;;;;1.98;1.13;;;17.20;99.90;;;;;;5087075;28;20036;-59
2022/06/25 04:31:58;;;;;;;;;;;17.30;99.90;;;;;;5086973;28;20109;-60
2022/06/25 04:34:24;;;;;;;6.97;1.35;;;17.40;99.90;;;;;;5089523;28;20383;-59
2022/06/25 04:36:50;;;;;;;2.65;1.40;;;17.70;99.90;;;;;;5086403;28;20047;-59
2022/06/25 04:39:16;;;;;;;;;;;17.90;99.90;;;;;;5088599;28;20073;-60
2022/06/25 04:41:42;;;;;;;1.58;1.27;;;18.10;99.90;;;;;;5084285;28;19926;-55
2022/06/25 04:44:07;;;;;;;3.83;1.50;;;18.20;99.90;;;;;;5088325;28;20105;-57
2022/06/25 04:46:33;;;;;;;4.88;2.20;;;18.20;99.90;;;;;;5087930;28;20716;-57
2022/06/25 04:48:59;;;;;;;;;;;18.20;99.90;;;;;;5087228;28;20570;-59
2022/06/25 04:51:26;;;;;;;7.07;1.83;;;18.20;99.90;;;;;;5084257;28;19962;-59
2022/06/25 04:53:57;;;;;;;1.52;1.17;;;18.10;99.90;;;;;;5088210;28;20068;-59
2022/06/25 04:56:28;;;;;;;2.65;1.35;;;18.10;99.90;;;;;;5089295;28;20044;-59
2022/06/25 04:58:55;;;;;;;2.95;1.63;;;18.40;99.90;;;;;;5089016;28;20043;-59
2022/06/25 05:01:22;;;;;;;3.67;1.20;;;18.50;99.90;;;;;;5088522;28;20040;-59
2022/06/25 05:03:47;;;;;;;4.40;1.45;;;18.50;99.90;;;;;;5089228;28;20048;-59
2022/06/25 05:06:13;;;;;;;;;;;18.40;99.90;;;;;;5088791;28;20385;-59
2022/06/25 05:08:39;;;;;;;2.65;1.45;;;18.40;99.90;;;;;;5089388;28;19970;-59
2022/06/25 05:11:05;;;;;;;5.60;1.60;;;18.40;99.90;;;;;;5095179;28;20580;-59
2022/06/25 05:13:30;;;;;;;4.85;1.38;;;18.40;99.90;;;;;;5088728;28;20040;-59
2022/06/25 05:15:56;;;;;;;3.63;1.50;;;18.30;99.90;;;;;;5088995;28;20583;-57
2022/06/25 05:18:22;;;;;;;4.22;1.58;;;18.40;99.90;;;;;;5087784;28;20032;-59
2022/06/25 05:20:48;;;;;;;3.90;1.52;;;18.40;99.90;;;;;;5087872;28;20135;-59
2022/06/25 05:23:14;;;;;;;5.95;1.52;;;18.40;99.90;;;;;;5086041;28;20553;-61
2022/06/25 05:25:41;;;;;;;4.38;1.67;;;18.50;99.90;;;;;;5088016;28;20117;-61
2022/06/25 05:28:06;;;;;;;3.28;1.58;;;18.70;99.90;;;;;;5087972;28;20041;-60
2022/06/25 05:30:33;;;;;;;;;;;18.80;99.90;;;;;;5087766;28;20085;-61
2022/06/25 05:32:59;;;;;;;6.33;2.00;;;18.90;99.90;;;;;;5088808;28;19924;-59
2022/06/25 05:35:25;;;;;;;4.05;1.30;;;19.20;99.90;;;;;;5088532;28;20040;-61
2022/06/25 05:37:51;;;;;;;2.75;1.30;;;19.70;99.90;;;;;;5087979;28;20044;-61
2022/06/25 05:40:16;;;;;;;5.90;1.67;;;20.50;99.90;;;;;;5087877;28;20616;-61
2022/06/25 05:42:42;;;;;;;3.28;1.15;;;20.50;99.90;;;;;;5091434;28;20044;-61
2022/06/25 05:45:08;;;;;;;2.60;1.25;;;20.50;99.90;;;;;;5087860;28;20075;-61
2022/06/25 05:47:34;;;;;;;3.28;1.10;;;20.50;99.90;;;;;;5088036;28;20122;-61
2022/06/25 05:49:59;;;;;;;4.25;1.83;;;20.30;99.90;;;;;;5088173;28;20036;-61
2022/06/25 05:52:25;;;;;;;3.53;1.48;;;20.20;99.90;;;;;;5087691;28;20326;-62
2022/06/25 05:54:50;;;;;;;2.95;1.20;;;19.90;99.90;;;;;;5087904;28;20130;-64
2022/06/25 05:57:16;;;;;;;2.45;1.48;;;19.80;99.90;;;;;;5087830;28;20115;-60
2022/06/25 05:59:42;;;;;;;2.38;1.15;;;19.80;99.90;;;;;;5087300;28;20075;-60
2022/06/25 06:02:08;;;;;;;2.60;1.45;;;19.90;99.90;;;;;;5087153;28;20534;-60
2022/06/25 06:04:33;;;;;;;3.08;1.20;;;19.90;99.90;;;;;;5084329;28;20042;-62
2022/06/25 06:07:00;;;;;;;5.95;1.40;;;19.80;99.90;;;;;;5087123;28;20040;-59
2022/06/25 06:09:29;;;;;;;3.78;1.55;;;19.70;99.90;;;;;;5082596;28;20098;-62
2022/06/25 06:11:55;;;;;;;5.45;1.42;;;19.60;99.90;;;;;;5086882;28;20115;-58
2022/06/25 06:14:22;;;;;;;6.63;1.58;;;19.60;99.90;;;;;;5072648;28;20131;-60
2022/06/25 06:16:47;;;;;;;2.70;1.30;;;20.00;99.90;;;;;;5083042;28;20096;-60
2022/06/25 06:19:13;;;;;;;2.40;1.20;;;20.30;99.50;;;;;;5087552;28;20178;-60
2022/06/25 06:21:38;;;;;;;6.57;1.50;;;21.90;97.10;;;;;;5078033;28;20036;-60
2022/06/25 06:24:04;;;;;;;4.97;1.40;;;22.20;95.60;;;;;;5087044;28;20060;-60
2022/06/25 06:26:30;;;;;;;2.95;1.52;;;21.60;96.00;;;;;;5083146;28;20047;-60
2022/06/25 06:28:55;;;;;;;4.55;2.08;;;21.50;96.60;;;;;;5085091;28;20166;-56
2022/06/25 06:31:21;;;;;;;3.65;2.25;;;21.20;97.50;;;;;;5078555;28;20033;-61
2022/06/25 06:33:46;;;;;;;6.20;1.30;;;21.00;97.30;;;;;;5085087;28;20035;-61
2022/06/25 06:36:13;;;;;;;3.40;1.38;;;21.50;97.10;;;;;;5087193;28;20028;-60
2022/06/25 06:38:39;;;;;;;12.27;2.05;;;21.70;96.60;;;;;;5082429;28;20040;-60
2022/06/25 06:41:05;;;;;;;3.65;1.33;;;21.40;96.30;;;;;;5086424;28;20161;-61
2022/06/25 06:43:30;;;;;;;4.20;1.52;;;21.40;97.30;;;;;;5084239;28;20043;-61
2022/06/25 06:45:56;;;;;;;3.58;1.70;;;21.10;96.60;;;;;;5077973;28;20044;-60
2022/06/25 06:48:22;;;;;;;2.13;1.27;;;21.00;96.80;;;;;;5086852;28;20036;-60
2022/06/25 06:50:48;;;;;;;4.35;1.27;;;21.10;97.60;;;;;;5086737;28;20032;-60
2022/06/25 06:53:14;;;;;;;2.80;1.30;;;21.10;97.30;;;;;;5084288;28;20442;-60
2022/06/25 06:55:39;;;;;;;4.10;1.63;;;21.60;97.70;;;;;;5085569;28;20126;-61
2022/06/25 06:58:05;;;;;;;2.35;1.52;;;22.70;95.30;;;;;;5083647;28;20029;-60
2022/06/25 07:00:30;;;;;;;4.45;1.50;;;23.10;94.90;;;;;;5085718;28;20040;-60
2022/06/25 07:02:56;;;;;;;6.00;1.42;;;22.70;94.70;;;;;;5086649;28;20162;-60
2022/06/25 07:05:21;;;;;;;2.45;1.40;;;22.60;94.30;;;;;;5085408;28;20040;-60
2022/06/25 07:07:47;;;;;;;6.25;1.75;;;22.40;95.90;;;;;;5086207;28;20047;-60
2022/06/25 07:10:14;;;;;;;1.92;1.15;;;22.10;95.70;;;;;;5082957;28;20043;-60
2022/06/25 07:12:40;;;;;;;1.90;1.30;;;21.80;95.40;;;;;;5085839;28;20040;-60
2022/06/25 07:15:06;;;;;;;2.35;1.23;;;21.40;96.80;;;;;;5080980;28;20496;-64
2022/06/25 07:17:32;;;;;;;6.68;1.23;;;21.20;97.40;;;;;;5086510;28;20416;-60
2022/06/25 07:19:58;;;;;;;3.38;1.35;;;21.00;97.10;;;;;;5083564;28;20036;-59
2022/06/25 07:22:24;;;;;;;2.65;1.40;;;21.50;97.30;;;;;;5078555;28;20905;-60
2022/06/25 07:24:51;;;;;;;1.83;1.30;;;22.30;95.10;;;;;;5083889;28;20044;-60
2022/06/25 07:27:17;;;;;;;3.15;1.70;;;22.40;94.60;;;;;;5086822;28;20490;-58
2022/06/25 07:29:43;;;;;;;7.18;1.50;;;22.30;95.10;;;;;;5088031;28;20461;-59
2022/06/25 07:32:10;;;;;;;4.47;1.45;;;22.00;95.50;;;;;;5090824;28;20036;-59
2022/06/25 07:34:35;;;;;;;7.65;1.58;;;21.80;95.70;;;;;;5090345;28;20116;-59
2022/06/25 07:37:01;;;;;;;3.33;1.20;;;21.60;95.80;;;;;;5089587;28;20134;-60
2022/06/25 07:39:27;;;;;;;4.75;1.67;;;21.70;95.30;;;;;;5098195;28;20036;-59
2022/06/25 07:41:53;;;;;;;6.32;1.33;;;21.60;95.50;;;;;;5102183;28;20028;-60
2022/06/25 07:44:19;;;;;;;2.63;1.50;;;21.40;95.90;;;;;;5099638;28;20054;-60
2022/06/25 07:46:45;;;;;;;4.68;1.65;;;21.20;96.10;;;;;;5090257;28;20040;-59
2022/06/25 07:49:10;;;;;;;3.47;1.45;;;21.00;97.20;;;;;;5090441;28;20040;-60
2022/06/25 07:54:20;;;;;;;5.05;1.67;;;20.80;97.00;;;;;;5090600;28;20032;-59
2022/06/25 07:56:46;;;;;;;4.22;1.30;;;20.90;96.60;;;;;;5090373;28;20047;-59
2022/06/25 07:59:12;;;;;;;2.10;1.20;;;20.90;96.80;;;;;;5087057;28;20032;-58
2022/06/25 08:01:37;;;;;;;3.85;1.67;;;20.90;97.10;;;;;;5089329;28;20040;-59
2022/06/25 08:04:03;;;;;;;5.00;1.40;;;21.10;96.60;;;;;;5088270;28;20149;-60
2022/06/25 08:06:29;;;;;;;2.78;1.50;;;21.40;96.40;;;;;;5068480;28;20044;-60
2022/06/25 08:08:54;;;;;;;4.40;1.33;;;22.00;95.10;;;;;;5076943;28;20115;-61
2022/06/25 08:11:20;;;;;;;8.20;1.40;;;22.70;93.60;;;;;;5101175;28;20036;-60
2022/06/25 08:13:45;;;;;;;3.30;1.60;;;23.80;93.00;;;;;;5108746;28;20042;-61
2022/06/25 08:16:11;;;;;;;5.78;1.17;;;24.60;89.50;;;;;;5089363;28;20105;-60
2022/06/25 08:18:38;;;;;;;1.83;1.23;;;24.60;91.70;;;;;;5090133;28;20174;-61
2022/06/25 08:21:04;;;;;;;2.05;1.08;;;24.60;90.00;;;;;;5089690;28;20052;-60
2022/06/25 08:23:30;;;;;;;2.22;0.95;;;24.70;88.10;;;;;;5089350;28;20036;-61
2022/06/25 08:25:56;;;;;;;2.00;1.15;;;24.60;88.20;;;;;;5089738;28;20063;-60
2022/06/25 08:28:23;;;;;;;4.13;1.45;;;24.30;87.70;;;;;;5090065;28;20629;-60
2022/06/25 08:30:49;;;;;;;5.63;1.45;;;24.40;90.40;;;;;;5088754;28;20701;-60
2022/06/25 08:33:15;;;;;;;2.45;1.00;;;24.10;90.80;;;;;;5089584;28;20087;-60
2022/06/25 08:35:41;;;;;;;7.72;1.15;;;24.10;90.80;;;;;;5089672;28;20039;-60
2022/06/25 08:38:06;;;;;;;2.70;1.20;;;24.40;90.50;;;;;;5088806;28;20105;-61
2022/06/25 08:40:32;;;;;;;1.95;1.20;;;25.00;90.60;;;;;;5100465;28;20390;-60
2022/06/25 08:42:59;;;;;;;4.47;1.30;;;26.20;90.00;;;;;;5088421;28;20040;-60
2022/06/25 08:45:25;;;;;;;1.63;1.30;;;27.30;86.70;;;;;;5078385;28;20168;-61
2022/06/25 08:47:51;;;;;;;5.30;1.52;;;28.40;82.00;;;;;;5088378;28;20808;-61
2022/06/25 08:50:21;;;;;;;3.25;1.85;;;28.80;79.40;;;;;;5088677;28;20488;-59
2022/06/25 08:52:52;;;;;;;1.48;1.08;;;28.40;81.60;;;;;;5089526;28;20044;-61
2022/06/25 08:55:29;;;;;;;3.47;1.27;;;28.90;81.50;;;;;;5089084;28;20028;-60
2022/06/25 08:57:56;;;;;;;4.63;1.40;;;27.80;78.00;;;;;;5089058;28;20040;-60
2022/06/25 09:00:22;;;;;;;2.88;1.40;;;26.50;81.90;;;;;;5088305;28;20040;-60
2022/06/25 09:02:48;;;;;;;4.00;1.55;;;25.20;86.10;;;;;;5088896;28;20124;-60
2022/06/25 09:05:13;;;;;;;1.52;1.20;;;24.60;88.40;;;;;;5080320;28;20450;-60
2022/06/25 09:07:52;;;;;;;1.67;1.42;;;24.40;90.90;;;;;;5089135;28;20044;-60
2022/06/25 09:10:22;;;;;;;5.80;1.63;;;24.20;91.30;;;;;;5063425;28;20036;-60
2022/06/25 09:12:53;;;;;;;4.95;1.50;;;24.20;90.60;;;;;;5107223;28;20114;-60
2022/06/25 09:15:24;;;;;;;1.42;1.30;;;24.00;91.20;;;;;;5094774;28;20063;-60
2022/06/25 09:17:51;;;;;;;4.05;1.40;;;24.00;91.10;;;;;;5068099;28;20052;-60
2022/06/25 09:20:18;;;;;;;9.15;2.03;;;24.00;90.90;;;;;;5073486;28;20131;-60
2022/06/25 09:22:59;;;;;;;2.65;1.60;;;24.00;87.00;;;;;;5087952;28;20057;-59
2022/06/25 09:25:27;;;;;;;5.00;1.20;;;23.60;83.70;;;;;;5088441;28;20054;-60
2022/06/25 09:27:53;;;;;;;2.28;1.42;;;23.30;87.50;;;;;;5086930;28;20048;-60
2022/06/25 09:30:28;;;;;;;2.38;1.30;;;23.00;88.60;;;;;;5087508;28;20044;-60
2022/06/25 09:33:01;;;;;;;1.67;1.23;;;22.70;88.90;;;;;;5067596;28;20040;-60
2022/06/25 09:35:35;;;;;;;4.78;1.10;;;22.70;90.10;;;;;;5067738;28;20044;-60
2022/06/25 09:38:10;;;;;;;2.50;1.10;;;23.00;88.60;;;;;;5068134;28;20047;-60
2022/06/25 09:40:53;;;;;;;4.82;1.48;;;23.10;88.20;;;;;;5076464;28;20326;-60
2022/06/25 09:43:25;;;;;;;1.92;1.10;;;23.20;87.80;;;;;;5067928;28;20032;-60
2022/06/25 09:45:53;;;;;;;3.13;1.23;;;23.00;87.90;;;;;;5067762;28;20631;-60
2022/06/25 09:48:30;;;;;;;6.10;1.88;;;23.10;90.50;;;;;;5068185;28;20783;-60
2022/06/25 09:51:19;;;;;;;4.20;1.30;;;23.30;89.20;;;;;;5067189;28;20115;-59
2022/06/25 09:53:54;;;;;;;14.10;1.35;;;23.50;87.50;;;;;;5061430;28;20048;-60
2022/06/25 09:56:36;;;;;;;3.47;1.30;;;23.40;87.40;;;;;;5067520;28;20127;-61
2022/06/25 09:59:02;;;;;;;1.83;0.88;;;23.20;87.50;;;;;;5067881;28;20083;-60
2022/06/25 10:01:34;;;;;;;4.80;1.42;;;23.20;87.60;;;;;;5077294;28;20044;-60
2022/06/25 10:04:06;;;;;;;2.67;1.30;;;23.00;87.60;;;;;;5088778;28;20035;-60
2022/06/25 10:06:39;;;;;;;5.25;1.48;;;22.70;89.60;;;;;;5087970;28;20078;-60
2022/06/25 10:09:09;;;;;;;2.30;1.40;;;22.80;90.40;;;;;;5092840;28;20042;-60
2022/06/25 10:11:37;;;;;;;3.63;1.08;;;22.80;90.90;;;;;;5091785;28;20412;-58
2022/06/25 10:14:05;;;;;;;4.15;0.93;;;22.60;90.80;;;;;;5089034;28;20040;-60
2022/06/25 10:16:38;;;;;;;2.17;1.20;;;22.50;91.80;;;;;;5088153;28;20070;-60
2022/06/25 10:19:08;;;;;;;2.00;1.48;;;22.40;91.90;;;;;;5088522;28;20061;-60
2022/06/25 10:21:36;;;;;;;2.47;1.55;;;22.30;91.40;;;;;;5087364;28;20047;-60
2022/06/25 10:24:07;;;;;;;3.28;1.30;;;22.20;91.80;;;;;;5088312;28;20253;-59
2022/06/25 10:26:38;;;;;;;3.90;1.13;;;22.10;91.00;;;;;;5079634;28;20686;-60
2022/06/25 10:29:44;;;;;;;3.90;1.98;;;22.00;91.60;;;;;;5077372;28;20538;-59
2022/06/25 10:32:18;;;;;;;2.17;1.65;;;22.20;92.80;;;;;;5086651;28;20043;-60
2022/06/25 10:35:03;;;;;;;4.03;2.28;;;22.50;93.60;;;;;;5088341;28;20040;-60
2022/06/25 10:38:00;;;;;;;5.18;1.88;;;22.50;94.00;;;;;;5088118;28;20043;-60
2022/06/25 10:40:26;;;;;;;1.92;1.60;;;22.40;93.80;;;;;;5087449;28;20043;-60
2022/06/25 10:43:00;;;;;;;4.10;2.15;;;22.30;94.10;;;;;;5087653;28;20113;-60
2022/06/25 10:45:29;;;;;;;6.20;1.77;;;22.30;93.60;;;;;;5087478;28;20028;-59
2022/06/25 10:47:59;;;;;;;2.47;1.58;;;22.50;93.20;;;;;;5087733;28;20658;-59
2022/06/25 10:50:35;;;;;;;3.22;1.60;;;22.60;94.10;;;;;;5085081;28;20109;-60
2022/06/25 10:53:06;;;;;;;3.00;1.95;;;22.40;93.40;;;;;;5087134;28;20036;-59
2022/06/25 10:55:37;;;;;;;2.83;1.70;;;22.40;94.50;;;;;;5087577;28;20133;-60
2022/06/25 10:58:21;;;;;;;4.47;1.90;;;22.30;93.80;;;;;;5086954;28;20038;-60
2022/06/25 11:01:09;;;;;;;5.65;1.50;;;22.30;93.90;;;;;;5085727;28;20059;-60
2022/06/25 11:03:35;;;;;;;1.92;1.45;;;22.20;93.80;;;;;;5087401;28;20036;-58
2022/06/25 11:06:19;;;;;;;3.60;1.55;;;22.40;93.90;;;;;;5086962;28;20032;-60
2022/06/25 11:08:49;;;;;;;5.88;2.08;;;22.70;94.30;;;;;;5089499;28;20059;-60
2022/06/25 11:11:45;;;;;;;4.53;1.92;;;22.70;93.00;;;;;;5098868;28;20059;-59
2022/06/25 11:14:24;;;;;;;4.30;1.87;;;22.60;94.90;;;;;;5066467;28;20045;-60
2022/06/25 11:16:52;;;;;;;2.15;1.42;;;22.60;93.90;;;;;;5069340;28;20477;-60
2022/06/25 11:19:19;;;;;;;2.35;1.50;;;22.40;92.60;;;;;;5087515;28;20036;-63
2022/06/25 11:21:48;;;;;;;4.43;1.73;;;22.40;93.50;;;;;;5087248;28;20618;-60
2022/06/25 11:24:25;;;;;;;3.63;1.85;;;22.30;94.00;;;;;;5088117;28;20048;-58
2022/06/25 11:29:55;;;;;;;9.02;1.90;;;22.30;94.40;;;;;;5087595;28;20028;-60
2022/06/25 11:32:26;;;;;;;4.95;1.50;;;22.40;94.20;;;;;;5071298;28;20032;-60
2022/06/25 11:34:57;;;;;;;5.65;1.98;;;22.40;94.30;;;;;;5067327;28;20500;-60
2022/06/25 11:37:29;;;;;;;2.22;1.50;;;22.40;94.10;;;;;;5066632;28;20151;-60
2022/06/25 11:39:55;;;;;;;2.67;1.80;;;22.40;94.10;;;;;;5075324;28;20036;-61
2022/06/25 11:42:21;;;;;;;2.13;1.42;;;22.70;93.30;;;;;;5079231;28;20036;-60
2022/06/25 11:44:52;;;;;;;3.75;1.70;;;23.00;93.80;;;;;;5066754;28;20102;-60
2022/06/25 11:47:20;;;;;;;4.15;1.60;;;23.00;92.70;;;;;;5066839;28;20592;-59
2022/06/25 11:49:47;;;;;;;2.90;1.50;;;23.20;92.90;;;;;;5069471;28;20048;-60
2022/06/25 11:52:14;;;;;;;5.50;1.67;;;23.60;92.30;;;;;;5072057;28;20040;-60
2022/06/25 11:54:41;;;;;;;7.80;1.90;;;23.90;93.00;;;;;;5066622;28;20040;-60
2022/06/25 11:57:10;;;;;;;2.38;1.30;;;23.90;92.60;;;;;;5047766;28;20111;-60
2022/06/25 11:59:37;;;;;;;3.08;1.85;;;24.10;92.40;;;;;;5065479;28;20045;-60
2022/06/25 12:02:07;;;;;;;7.10;1.77;;;24.00;91.10;;;;;;5080548;28;20117;-60
2022/06/25 12:04:57;;;;;;;4.55;1.83;;;23.80;92.10;;;;;;5086730;28;20044;-60
2022/06/25 12:07:28;;;;;;;5.35;1.98;;;23.60;92.20;;;;;;5086213;28;20114;-60
2022/06/25 12:09:56;;;;;;;3.95;1.50;;;23.60;92.40;;;;;;5085929;28;20111;-60
2022/06/25 12:12:24;;;;;;;1.95;1.40;;;23.80;92.30;;;;;;5101049;28;20044;-61
2022/06/25 12:14:50;;;;;;;2.88;1.50;;;23.90;90.00;;;;;;5089993;28;20100;-60
2022/06/25 12:17:17;;;;;;;3.53;1.60;;;23.90;91.50;;;;;;5089929;28;20086;-60
2022/06/25 12:19:51;;;;;;;3.53;1.60;;;23.90;90.60;;;;;;5089942;28;20495;-60
2022/06/25 12:22:29;;;;;;;6.57;1.48;;;23.90;91.40;;;;;;5089930;28;20711;-59
2022/06/25 12:25:00;;;;;;;7.28;2.15;;;24.10;90.20;;;;;;5089794;28;20044;-59
2022/06/25 12:27:27;;;;;;;6.78;1.60;;;24.10;90.90;;;;;;5090201;28;20039;-60
2022/06/25 12:29:55;;;;;;;5.25;1.48;;;24.00;90.00;;;;;;5071911;28;20082;-61
2022/06/25 12:32:42;;;;;;;3.85;1.73;;;24.30;91.70;;;;;;5068697;28;20068;-60
2022/06/25 12:35:21;;;;;;;;;;;24.60;91.00;;;;;;5089256;28;20071;-60
2022/06/25 12:38:05;;;;;;;4.40;1.40;;;24.70;91.60;;;;;;5089498;28;19951;-60
2022/06/25 12:40:42;;;;;;;2.83;1.40;;;24.80;90.90;;;;;;5086063;28;20079;-60
2022/06/25 12:43:09;;;;;;;2.67;1.30;;;24.60;90.60;;;;;;5070431;28;20048;-60
2022/06/25 12:45:39;;;;;;;3.05;1.30;;;24.60;91.10;;;;;;5087015;28;20055;-60
2022/06/25 12:48:09;;;;;;;2.70;1.45;;;24.50;90.60;;;;;;5090104;28;20076;-61
2022/06/25 12:50:36;;;;;;;3.08;1.63;;;24.40;90.40;;;;;;5068847;28;20040;-60
2022/06/25 12:53:13;;;;;;;6.55;1.80;;;24.60;90.90;;;;;;5069502;28;20084;-60
2022/06/25 12:55:43;;;;;;;7.30;1.92;;;24.20;90.00;;;;;;5074721;28;20705;-61
2022/06/25 12:58:12;;;;;;;6.03;1.70;;;24.00;91.00;;;;;;5088954;28;20044;-60
2022/06/25 13:00:39;;;;;;;2.45;1.50;;;23.70;91.40;;;;;;5088145;28;20054;-60
2022/06/25 13:03:05;;;;;;;3.15;1.38;;;23.50;91.60;;;;;;5088474;28;20036;-60
2022/06/25 13:05:31;;;;;;;3.63;1.70;;;23.30;91.80;;;;;;5088475;28;20138;-61
2022/06/25 13:07:57;;;;;;;4.93;1.58;;;23.40;92.10;;;;;;5089383;28;20052;-60
2022/06/25 13:10:23;;;;;;;3.50;1.63;;;23.60;91.60;;;;;;5096757;28;20902;-60
2022/06/25 13:12:53;;;;;;;2.97;1.13;;;23.70;91.20;;;;;;5108722;28;20035;-61
2022/06/25 13:15:20;;;;;;;4.00;1.95;;;23.80;91.10;;;;;;5093910;28;20036;-60
2022/06/25 13:17:46;;;;;;;2.75;1.40;;;23.90;90.00;;;;;;5089023;28;20521;-60